Terminal Aerodrome Forecast
Issued by NWS

Home | Current Version | Previous Version | Text Only | Print | Product List | Glossary On
Versions: 1 2 3 4 5 6 7 8 9 10 11 12 13 14 15 16 17 18 19
000
FTUS41 KLWX 221100
TAFMTN
TAF
KMTN 221137Z 2212/2312 32007KT 6SM -SHRA SCT007 OVC015
      TEMPO 2212/2214 5SM -SHRA
     FM221400 36017G25KT 6SM -SHRA SCT007 OVC015
     FM221700 36018G26KT 6SM -SHRA OVC025
     FM222300 34019G29KT 6SM -SHRA OVC040
     FM230000 34019G29KT P6SM OVC040=

USA.gov is the U.S. government's official web portal to all federal, state and local government web resources and services.